PTDAP SIFC-SNIO
Flight info
| Callsign | PTDAP |
|---|---|
| Flight time | N/A |
| Altitude | 4500 |
| Route | VATCAREER |
| Aircraft | BE36/L-SDF/C |
Departure
| Time | N/A |
|---|---|
| Airport | Coroa do Avião Airport (SIFC) |
Arrival
| Time | 2026-04-20 16:07 |
|---|---|
| Airport | Cipó Airport (SNIO) |
| Time | Latitude | Longitude | Altitude | Speed | Heading |
|---|---|---|---|---|---|
| 2026-04-20 16:07 | -11.12389 | -38.49288 | 751 ft | 0 kts | 114° |
| 2026-04-20 16:16 | -11.12390 | -38.49287 | 751 ft | 2 kts | 113° |
| 2026-04-20 16:16 | -11.12357 | -38.49303 | 751 ft | 13 kts | 346° |
| 2026-04-20 16:17 | -11.12334 | -38.49206 | 750 ft | 36 kts | 113° |
| 2026-04-20 16:17 | -11.12514 | -38.48762 | 797 ft | 87 kts | 117° |
| 2026-04-20 16:17 | -11.12768 | -38.48132 | 1032 ft | 105 kts | 113° |
| 2026-04-20 16:17 | -11.13076 | -38.47379 | 1189 ft | 124 kts | 114° |
| 2026-04-20 16:18 | -11.13561 | -38.46624 | 1313 ft | 134 kts | 147° |
| 2026-04-20 16:18 | -11.14491 | -38.46584 | 1439 ft | 146 kts | 199° |
| 2026-04-20 16:18 | -11.15249 | -38.47320 | 1562 ft | 155 kts | 228° |
| 2026-04-20 16:18 | -11.15899 | -38.48219 | 1685 ft | 160 kts | 233° |
| 2026-04-20 16:19 | -11.16484 | -38.49186 | 1797 ft | 161 kts | 234° |
| 2026-04-20 16:19 | -11.17035 | -38.50188 | 1921 ft | 162 kts | 234° |
| 2026-04-20 16:19 | -11.17597 | -38.51190 | 2059 ft | 164 kts | 234° |
| 2026-04-20 16:19 | -11.18118 | -38.52211 | 2203 ft | 165 kts | 237° |
| 2026-04-20 16:20 | -11.18663 | -38.53258 | 2310 ft | 164 kts | 236° |
| 2026-04-20 16:20 | -11.19205 | -38.54260 | 2406 ft | 163 kts | 236° |
| 2026-04-20 16:20 | -11.19746 | -38.55273 | 2518 ft | 162 kts | 234° |
| 2026-04-20 16:20 | -11.20296 | -38.56282 | 2655 ft | 163 kts | 236° |
| 2026-04-20 16:21 | -11.20853 | -38.57289 | 2782 ft | 163 kts | 238° |